createdAt,value
2018-02-08T00:01:39.619Z,32.25
2018-02-08T00:04:07.131Z,31.67
2018-02-08T00:06:34.834Z,39.22
2018-02-08T00:09:02.392Z,32.92
2018-02-08T00:11:29.957Z,33.90
2018-02-08T00:13:57.456Z,33.67
2018-02-08T00:16:24.958Z,32.70
2018-02-08T00:18:53.245Z,32.78
2018-02-08T00:21:20.817Z,35.72
2018-02-08T00:23:48.325Z,35.17
2018-02-08T00:26:15.853Z,35.15
2018-02-08T00:28:43.514Z,38.25
2018-02-08T00:31:11.046Z,37.78
2018-02-08T00:33:39.312Z,40.20
2018-02-08T00:36:07.582Z,42.45
2018-02-08T00:38:35.884Z,33.95
2018-02-08T00:41:03.423Z,37.47
2018-02-08T00:43:30.986Z,41.47
2018-02-08T00:45:59.286Z,38.13
2018-02-08T00:48:26.811Z,36.47
2018-02-08T00:50:54.398Z,32.30
2018-02-08T00:53:21.948Z,37.78
2018-02-08T00:55:50.235Z,32.97
2018-02-08T00:58:17.739Z,37.40
2018-02-08T01:00:45.256Z,31.12
2018-02-08T01:03:12.814Z,36.15
2018-02-08T01:05:41.081Z,35.40
2018-02-08T01:08:09.378Z,32.20
2018-02-08T01:10:36.888Z,32.95
2018-02-08T01:13:04.417Z,33.17
2018-02-08T01:15:31.950Z,34.70
2018-02-08T01:17:59.461Z,29.40
2018-02-08T01:20:27.060Z,36.58
2018-02-08T01:22:55.355Z,39.45
2018-02-08T01:25:22.906Z,34.10
2018-02-08T01:27:50.414Z,37.03
2018-02-08T01:30:18.031Z,37.03
2018-02-08T01:32:45.582Z,37.90
2018-02-08T01:35:13.870Z,38.05
2018-02-08T01:37:41.421Z,36.13
2018-02-08T01:40:09.706Z,31.90
2018-02-08T01:42:37.278Z,42.15
2018-02-08T01:45:04.790Z,39.42
2018-02-08T01:47:32.373Z,40.55
2018-02-08T01:50:00.658Z,37.95
2018-02-08T01:52:28.953Z,44.42
2018-02-08T01:54:56.459Z,43.45
2018-02-08T01:57:23.963Z,36.95
2018-02-08T01:59:51.497Z,38.35
2018-02-08T02:02:19.801Z,36.33
2018-02-08T02:04:47.323Z,39.08
2018-02-08T02:07:14.924Z,42.05
2018-02-08T02:09:42.485Z,39.75
2018-02-08T02:12:09.995Z,32.85
2018-02-08T02:14:37.610Z,34.72
2018-02-08T02:17:05.159Z,43.85
2018-02-08T02:19:32.722Z,39.60
2018-02-08T02:22:00.237Z,33.67
2018-02-08T02:24:27.779Z,37.05
2018-02-08T02:26:55.303Z,29.95
2018-02-08T02:29:22.824Z,34.10
2018-02-08T02:31:50.346Z,32.85
2018-02-08T02:34:17.882Z,39.03
2018-02-08T02:36:45.451Z,40.60
2018-02-08T02:39:12.992Z,39.47
2018-02-08T02:41:41.275Z,31.27
2018-02-08T02:44:08.811Z,38.08
2018-02-08T02:46:37.090Z,38.38
2018-02-08T02:49:05.367Z,37.33
2018-02-08T02:51:33.650Z,40.50
2018-02-08T02:54:01.981Z,37.35
2018-02-08T02:56:29.509Z,37.40
2018-02-08T02:58:57.493Z,45.17
2018-02-08T03:01:25.292Z,36.60
2018-02-08T03:03:53.739Z,40.08
2018-02-08T03:06:21.373Z,36.25
2018-02-08T03:08:49.644Z,42.92
2018-02-08T03:11:17.935Z,39.60
2018-02-08T03:13:45.492Z,39.33
2018-02-08T03:16:13.788Z,36.28
2018-02-08T03:18:41.335Z,34.35
2018-02-08T03:21:09.319Z,34.10
2018-02-08T03:23:36.862Z,31.60
2018-02-08T03:26:05.161Z,35.28
2018-02-08T03:28:32.707Z,35.15
2018-02-08T03:44:20.613Z,30.37
2018-02-08T03:46:48.913Z,39.55
2018-02-08T03:49:16.424Z,38.20
2018-02-08T03:51:44.030Z,32.42
2018-02-08T03:54:11.603Z,38.20
2018-02-08T03:56:39.146Z,42.45
2018-02-08T03:59:06.658Z,37.60
2018-02-08T04:01:34.279Z,43.05
2018-02-08T04:04:01.830Z,33.92
2018-02-08T04:06:29.335Z,43.40
2018-02-08T04:08:56.909Z,35.00
2018-02-08T04:11:25.925Z,34.92
2018-02-08T04:13:53.436Z,42.40
2018-02-08T04:16:20.938Z,40.40
2018-02-08T04:18:48.437Z,37.42
2018-02-08T04:21:15.983Z,32.63
2018-02-08T04:23:44.256Z,35.67
2018-02-08T04:26:12.535Z,36.70
2018-02-08T04:28:40.826Z,37.25
2018-02-08T04:31:08.374Z,34.97
2018-02-08T04:33:36.652Z,37.17
2018-02-08T04:36:04.926Z,37.08
2018-02-08T04:38:45.046Z,49.90
2018-02-08T04:41:24.357Z,38.42
2018-02-08T04:46:58.245Z,37.85
2018-02-08T04:49:26.511Z,40.58
2018-02-08T04:51:54.790Z,41.33
2018-02-08T04:54:23.085Z,36.05
2018-02-08T04:56:50.593Z,36.47
2018-02-08T04:59:18.100Z,42.70
2018-02-08T05:01:46.375Z,43.42
2018-02-08T05:04:14.650Z,32.03
2018-02-08T05:06:42.929Z,37.60
2018-02-08T05:09:11.217Z,39.80
2018-02-08T05:11:38.737Z,37.20
2018-02-08T05:14:06.266Z,42.05
2018-02-08T05:16:33.777Z,36.83
2018-02-08T05:19:02.076Z,34.47
2018-02-08T05:21:29.599Z,37.58
2018-02-08T05:23:57.126Z,36.22
2018-02-08T05:26:24.643Z,33.90
2018-02-08T05:28:52.933Z,43.15
2018-02-08T05:31:20.437Z,36.35
2018-02-08T05:33:47.955Z,35.17
2018-02-08T05:36:15.461Z,37.17
2018-02-08T05:38:43.106Z,47.03
2018-02-08T05:41:10.606Z,43.05
2018-02-08T05:43:38.877Z,53.65
2018-02-08T05:46:07.178Z,37.38
2018-02-08T05:48:34.690Z,40.65
2018-02-08T05:51:02.183Z,35.80
2018-02-08T05:53:30.478Z,45.22
2018-02-08T05:55:58.030Z,46.25
2018-02-08T05:58:25.589Z,38.90
2018-02-08T06:00:53.967Z,41.67
2018-02-08T06:03:22.250Z,34.92
2018-02-08T06:05:49.768Z,45.10
2018-02-08T06:08:17.295Z,38.72
2018-02-08T06:10:44.818Z,43.42
2018-02-08T06:13:13.100Z,34.00
2018-02-08T06:15:41.380Z,42.85
2018-02-08T06:18:09.665Z,41.53
2018-02-08T06:20:37.218Z,39.25
2018-02-08T06:23:05.496Z,52.53
2018-02-08T06:25:33.780Z,44.03
2018-02-08T06:28:01.774Z,53.22
2018-02-08T06:30:30.188Z,44.60
2018-02-08T06:32:57.804Z,37.00
2018-02-08T06:35:25.403Z,39.33
2018-02-08T06:37:52.906Z,48.47
2018-02-08T06:40:20.474Z,49.22
2018-02-08T06:42:47.978Z,43.35
2018-02-08T06:45:15.785Z,54.40
2018-02-08T06:47:44.190Z,47.65
2018-02-08T06:50:11.696Z,47.30
2018-02-08T06:52:39.318Z,52.03
2018-02-08T06:55:06.810Z,50.65
2018-02-08T06:57:34.333Z,50.10
2018-02-08T07:00:01.846Z,49.30
2018-02-08T07:02:29.367Z,40.72
2018-02-08T07:04:56.877Z,55.60
2018-02-08T07:07:25.153Z,41.40
2018-02-08T07:09:53.459Z,53.92
2018-02-08T07:12:21.014Z,51.40
2018-02-08T07:14:48.679Z,42.00
2018-02-08T07:17:16.207Z,47.08
2018-02-08T07:19:43.805Z,42.60
2018-02-08T07:22:11.330Z,45.60
2018-02-08T07:24:39.626Z,59.05
2018-02-08T07:27:07.901Z,46.17
2018-02-08T07:29:35.423Z,50.20
2018-02-08T07:32:03.017Z,48.42
2018-02-08T07:34:31.287Z,44.42
2018-02-08T07:36:59.586Z,61.05
2018-02-08T07:39:27.131Z,51.25
2018-02-08T07:41:55.405Z,40.85
2018-02-08T07:44:24.631Z,38.50
2018-02-08T07:46:52.146Z,41.55
2018-02-08T07:49:19.851Z,53.72
2018-02-08T07:51:47.371Z,41.25
2018-02-08T07:54:14.874Z,40.28
2018-02-08T07:56:42.419Z,45.28
2018-02-08T07:59:09.943Z,41.45
2018-02-08T08:01:37.536Z,38.00
2018-02-08T08:04:05.525Z,39.88
2018-02-08T08:06:33.074Z,40.53
2018-02-08T08:09:00.774Z,46.72
2018-02-08T08:11:28.488Z,39.40
2018-02-08T08:13:56.762Z,41.85
2018-02-08T08:16:25.041Z,45.72
2018-02-08T08:18:53.317Z,41.22
2018-02-08T08:21:21.645Z,50.15
2018-02-08T08:23:49.142Z,48.75
2018-02-08T08:26:16.877Z,41.83
2018-02-08T08:28:44.418Z,48.60
2018-02-08T08:31:11.931Z,50.88
2018-02-08T08:33:40.342Z,45.95
2018-02-08T08:36:07.897Z,41.53
2018-02-08T08:38:35.467Z,54.92
2018-02-08T08:41:03.030Z,48.65
2018-02-08T08:43:30.676Z,44.83
2018-02-08T08:45:58.659Z,42.15
2018-02-08T08:48:26.210Z,38.20
2018-02-08T08:50:53.761Z,45.05
2018-02-08T08:53:21.322Z,46.30
2018-02-08T08:55:48.887Z,43.75
2018-02-08T08:58:17.125Z,46.92
2018-02-08T09:00:44.752Z,39.90
2018-02-08T09:03:12.257Z,47.15
2018-02-08T09:05:39.759Z,43.85
2018-02-08T09:08:07.310Z,42.53
2018-02-08T09:10:34.825Z,49.78
2018-02-08T09:13:02.426Z,48.70
2018-02-08T09:15:29.954Z,47.47
2018-02-08T09:17:57.477Z,47.72
2018-02-08T09:20:24.998Z,48.03
2018-02-08T09:22:52.521Z,47.42
2018-02-08T09:25:20.030Z,50.80
2018-02-08T09:27:47.580Z,46.95
2018-02-08T09:30:15.093Z,45.97
2018-02-08T09:32:42.611Z,51.45
2018-02-08T09:35:10.170Z,50.97
2018-02-08T09:37:37.673Z,48.20
2018-02-08T09:40:05.194Z,52.33
2018-02-08T09:42:32.701Z,53.00
2018-02-08T09:45:00.210Z,46.83
2018-02-08T09:47:27.707Z,56.70
2018-02-08T09:49:55.210Z,54.50
2018-02-08T09:52:23.477Z,51.97
2018-02-08T09:54:51.745Z,53.15
2018-02-08T09:57:20.042Z,54.33
2018-02-08T09:59:48.546Z,51.00
2018-02-08T10:02:16.186Z,55.72
2018-02-08T10:04:43.701Z,57.62
2018-02-08T10:07:11.301Z,48.42
2018-02-08T10:09:39.584Z,60.47
2018-02-08T10:12:07.141Z,51.55
2018-02-08T10:14:34.654Z,50.67
2018-02-08T10:17:02.204Z,60.10
2018-02-08T10:19:29.725Z,53.58
2018-02-08T10:21:57.444Z,53.03
2018-02-08T10:24:25.182Z,47.53
2018-02-08T10:26:52.993Z,53.45
2018-02-08T10:29:21.576Z,60.08
2018-02-08T10:31:50.111Z,55.20
2018-02-08T10:34:19.946Z,56.83
2018-02-08T10:36:47.913Z,60.95
2018-02-08T10:39:16.474Z,56.90
2018-02-08T10:41:45.199Z,63.33
2018-02-08T10:44:13.594Z,59.42
2018-02-08T10:46:42.814Z,52.72
2018-02-08T10:49:11.621Z,57.55
2018-02-08T10:51:39.182Z,54.00
2018-02-08T10:54:07.478Z,56.70
2018-02-08T10:56:35.008Z,59.90
2018-02-08T10:59:02.537Z,56.92
2018-02-08T11:01:30.138Z,50.60
2018-02-08T11:03:57.706Z,65.43
2018-02-08T11:06:25.249Z,54.87
2018-02-08T11:08:52.854Z,51.13
2018-02-08T11:11:20.433Z,55.20
2018-02-08T11:13:48.158Z,52.57
2018-02-08T11:16:15.675Z,61.43
2018-02-08T11:18:44.214Z,60.37
2018-02-08T11:21:11.893Z,49.30
2018-02-08T11:23:39.692Z,62.30
2018-02-08T11:26:08.559Z,56.95
2018-02-08T11:28:36.195Z,61.78
2018-02-08T11:31:04.656Z,63.95
2018-02-08T11:33:33.063Z,52.93
2018-02-08T11:36:00.810Z,56.03
2018-02-08T11:38:28.576Z,60.25
2018-02-08T11:40:56.342Z,66.35
2018-02-08T11:43:24.315Z,63.65
2018-02-08T11:45:51.894Z,65.18
2018-02-08T11:48:19.434Z,66.72
2018-02-08T11:50:47.916Z,59.65
2018-02-08T11:53:15.887Z,60.92
2018-02-08T11:55:44.431Z,65.95
2018-02-08T11:58:13.243Z,75.03
2018-02-08T12:00:41.263Z,70.93
2018-02-08T12:03:10.002Z,71.37
2018-02-08T12:05:37.681Z,58.30
2018-02-08T12:08:06.038Z,67.50
2018-02-08T12:10:35.670Z,66.82
2018-02-08T12:13:04.628Z,64.12
2018-02-08T12:15:33.102Z,71.37
2018-02-08T12:18:01.013Z,63.75
2018-02-08T12:20:30.626Z,66.25
2018-02-08T12:22:59.040Z,67.82
2018-02-08T12:25:27.123Z,69.22
2018-02-08T12:27:55.021Z,64.73
2018-02-08T12:30:23.219Z,55.58
2018-02-08T12:32:52.494Z,55.20
2018-02-08T12:35:20.715Z,61.58
2018-02-08T12:37:48.351Z,54.33
2018-02-08T12:40:16.099Z,58.58
2018-02-08T12:42:43.787Z,59.05
2018-02-08T12:45:14.083Z,56.78
2018-02-08T12:47:41.801Z,56.45
2018-02-08T12:50:09.923Z,56.45
2018-02-08T12:52:38.533Z,53.70
2018-02-08T12:55:07.386Z,62.62
2018-02-08T12:57:35.930Z,58.67
2018-02-08T13:00:03.457Z,60.08
2018-02-08T13:02:31.353Z,56.45
2018-02-08T13:04:59.861Z,55.12
2018-02-08T13:07:27.871Z,57.25
2018-02-08T13:09:55.553Z,49.50
2018-02-08T13:12:23.898Z,53.28
2018-02-08T13:14:52.582Z,57.45
2018-02-08T13:17:20.865Z,60.67
2018-02-08T13:19:49.218Z,66.12
2018-02-08T13:22:16.742Z,53.87
2018-02-08T13:24:44.663Z,62.08
2018-02-08T13:27:13.107Z,62.70
2018-02-08T13:29:41.179Z,55.53
2018-02-08T13:32:09.214Z,62.95
2018-02-08T13:34:36.745Z,61.05
2018-02-08T13:37:04.764Z,52.97
2018-02-08T13:39:35.558Z,54.58
2018-02-08T13:42:17.834Z,54.38
2018-02-08T13:44:45.538Z,67.25
2018-02-08T13:47:19.653Z,61.05
2018-02-08T13:49:48.321Z,90.60
2018-02-08T13:52:20.929Z,63.35
2018-02-08T13:54:51.683Z,63.20
2018-02-08T13:57:35.437Z,65.70
2018-02-08T14:00:08.827Z,58.15
2018-02-08T14:02:36.513Z,63.72
2018-02-08T14:05:04.970Z,66.43
2018-02-08T14:07:32.816Z,59.75
2018-02-08T14:10:00.448Z,63.97
2018-02-08T14:12:28.606Z,59.05
2018-02-08T14:14:57.744Z,62.45
2018-02-08T14:17:26.049Z,68.95
2018-02-08T14:19:53.545Z,59.40
2018-02-08T14:22:21.140Z,62.62
2018-02-08T14:24:49.726Z,58.83
2018-02-08T14:27:18.003Z,68.50
2018-02-08T14:29:46.287Z,58.67
2018-02-08T14:32:13.926Z,59.33
2018-02-08T14:34:42.221Z,64.12
2018-02-08T14:37:10.934Z,68.80
2018-02-08T14:39:38.431Z,67.65
2018-02-08T14:42:05.962Z,65.70
2018-02-08T14:44:33.474Z,62.40
2018-02-08T14:47:01.758Z,62.15
2018-02-08T14:49:30.050Z,61.92
2018-02-08T14:51:57.612Z,61.40
2018-02-08T14:54:30.951Z,63.92
2018-02-08T14:56:58.464Z,70.55
2018-02-08T14:59:25.961Z,66.87
2018-02-08T15:01:53.486Z,66.25
2018-02-08T15:04:21.002Z,63.15
2018-02-08T15:06:48.610Z,66.05
2018-02-08T15:09:16.122Z,75.60
2018-02-08T15:11:43.719Z,69.25
2018-02-08T15:14:11.230Z,70.55
2018-02-08T15:16:38.738Z,73.47
2018-02-08T15:19:06.306Z,65.25
2018-02-08T15:21:33.869Z,75.93
2018-02-08T15:24:01.374Z,73.12
2018-02-08T15:26:28.985Z,70.80
2018-02-08T15:28:56.569Z,77.78
2018-02-08T15:31:24.094Z,82.90
2018-02-08T15:33:51.670Z,73.37
2018-02-08T15:36:19.175Z,75.00
2018-02-08T15:38:46.794Z,70.40
2018-02-08T15:41:14.304Z,73.45
2018-02-08T15:43:41.862Z,77.57
2018-02-08T15:46:10.199Z,80.80
2018-02-08T15:48:37.785Z,70.32
2018-02-08T15:51:05.297Z,87.62
2018-02-08T15:53:33.632Z,90.28
2018-02-08T15:56:01.139Z,76.20
2018-02-08T15:58:29.554Z,73.75
2018-02-08T16:00:57.090Z,90.62
2018-02-08T16:03:24.663Z,77.30
2018-02-08T16:05:52.176Z,76.43
2018-02-08T16:08:19.705Z,75.12
2018-02-08T16:10:47.860Z,74.00
2018-02-08T16:13:16.651Z,88.03
2018-02-08T16:15:44.207Z,73.12
2018-02-08T16:18:11.718Z,81.97
2018-02-08T16:20:39.237Z,76.15
2018-02-08T16:23:06.749Z,76.20
2018-02-08T16:25:35.105Z,75.62
2018-02-08T16:28:02.665Z,87.18
2018-02-08T16:30:30.291Z,78.72
2018-02-08T16:32:57.830Z,72.55
2018-02-08T16:35:25.602Z,73.70
2018-02-08T16:37:53.798Z,80.47
2018-02-08T16:40:21.348Z,76.15
2018-02-08T16:42:48.940Z,81.72
2018-02-08T16:45:16.556Z,78.28
2018-02-08T16:47:44.130Z,78.35
2018-02-08T16:50:11.679Z,83.07
2018-02-08T16:52:39.191Z,78.93
2018-02-08T16:55:06.717Z,79.50
2018-02-08T16:57:34.267Z,69.57
2018-02-08T17:00:01.825Z,76.60
2018-02-08T17:02:29.336Z,72.65
2018-02-08T17:04:58.133Z,77.93
2018-02-08T17:07:26.450Z,82.12
2018-02-08T17:09:54.091Z,68.12
2018-02-08T17:12:22.366Z,78.95
2018-02-08T17:14:50.648Z,84.10
2018-02-08T17:17:18.937Z,79.57
2018-02-08T17:19:47.214Z,85.80
2018-02-08T17:22:14.779Z,80.30
2018-02-08T17:24:42.333Z,78.97
2018-02-08T17:27:10.644Z,77.25
2018-02-08T17:29:38.182Z,85.47
2018-02-08T17:32:05.711Z,77.20
2018-02-08T17:34:34.002Z,76.87
2018-02-08T17:37:02.292Z,74.62
2018-02-08T17:39:29.847Z,78.82
2018-02-08T17:41:57.409Z,94.13
2018-02-08T17:44:24.970Z,80.72
2018-02-08T17:46:53.364Z,82.25
2018-02-08T17:49:20.943Z,86.63
2018-02-08T17:51:48.476Z,86.72
2018-02-08T17:54:16.012Z,83.85
2018-02-08T17:56:44.314Z,79.30
2018-02-08T17:59:11.822Z,80.30
2018-02-08T18:01:40.393Z,71.47
2018-02-08T18:04:08.022Z,83.65
2018-02-08T18:06:35.579Z,80.80
2018-02-08T18:09:03.092Z,87.75
2018-02-08T18:11:30.819Z,85.12
2018-02-08T18:13:59.282Z,93.87
2018-02-08T18:16:27.662Z,81.28
2018-02-08T18:18:55.185Z,83.30
2018-02-08T18:21:22.709Z,76.68
2018-02-08T18:23:50.243Z,88.35
2018-02-08T18:26:17.764Z,83.60
2018-02-08T18:28:46.790Z,86.03
2018-02-08T18:31:15.081Z,71.75
2018-02-08T18:33:42.606Z,78.62
2018-02-08T18:36:10.893Z,76.70
2018-02-08T18:38:39.208Z,74.70
2018-02-08T18:41:06.766Z,78.10
2018-02-08T18:43:34.277Z,75.37
2018-02-08T18:46:01.862Z,78.65
2018-02-08T18:48:30.127Z,75.15
2018-02-08T18:50:58.416Z,85.45
2018-02-08T18:53:26.726Z,83.85
2018-02-08T18:55:54.254Z,79.75
2018-02-08T18:58:22.544Z,73.90
2018-02-08T19:00:50.107Z,75.40
2018-02-08T19:03:17.617Z,79.97
2018-02-08T19:05:45.231Z,83.40
2018-02-08T19:08:12.769Z,83.85
2018-02-08T19:10:41.062Z,80.97
2018-02-08T19:13:08.565Z,82.07
2018-02-08T19:15:36.181Z,87.12
2018-02-08T19:18:03.684Z,73.80
2018-02-08T19:20:31.206Z,84.93
2018-02-08T19:22:58.716Z,84.10
2018-02-08T19:25:26.313Z,83.65
2018-02-08T19:27:54.625Z,77.25
2018-02-08T19:30:22.170Z,74.93
2018-02-08T19:32:49.699Z,79.78
2018-02-08T19:35:17.984Z,83.47
2018-02-08T19:37:46.403Z,86.18
2018-02-08T19:40:13.928Z,84.00
2018-02-08T19:42:42.357Z,89.53
2018-02-08T19:45:09.874Z,73.90
2018-02-08T19:47:37.386Z,78.57
2018-02-08T19:50:05.528Z,79.37
2018-02-08T19:52:33.051Z,74.70
2018-02-08T19:55:01.360Z,81.30
2018-02-08T19:57:28.864Z,79.72
2018-02-08T19:59:56.459Z,82.50
2018-02-08T20:02:24.028Z,74.40
2018-02-08T20:04:51.551Z,87.80
2018-02-08T20:07:19.166Z,85.97
2018-02-08T20:09:46.694Z,82.37
2018-02-08T20:12:14.994Z,79.93
2018-02-08T20:14:47.082Z,76.95
2018-02-08T20:17:14.593Z,76.10
2018-02-08T20:19:42.866Z,79.78
2018-02-08T20:22:11.137Z,85.10
2018-02-08T20:24:38.650Z,90.85
2018-02-08T20:27:06.184Z,85.72
2018-02-08T20:29:33.805Z,85.22
2018-02-08T20:32:02.049Z,79.40
2018-02-08T20:34:30.510Z,79.97
2018-02-08T20:37:01.112Z,81.47
2018-02-08T20:39:29.057Z,74.18
2018-02-08T20:41:56.838Z,81.47
2018-02-08T20:44:25.083Z,81.03
2018-02-08T20:46:53.358Z,88.35
2018-02-08T20:49:21.297Z,83.85
2018-02-08T20:51:49.782Z,83.35
2018-02-08T20:54:17.797Z,92.15
2018-02-08T20:56:46.182Z,85.25
2018-02-08T20:59:13.719Z,84.82
2018-02-08T21:01:41.943Z,83.57
2018-02-08T21:04:11.941Z,79.53
2018-02-08T21:06:40.455Z,82.62
2018-02-08T21:09:08.655Z,84.50
2018-02-08T21:11:36.672Z,78.32
2018-02-08T21:14:05.317Z,93.87
2018-02-08T21:16:33.596Z,90.55
2018-02-08T21:19:01.786Z,81.07
2018-02-08T21:21:29.885Z,87.25
2018-02-08T21:23:58.786Z,77.15
2018-02-08T21:26:26.854Z,84.40
2018-02-08T21:28:55.287Z,77.47
2018-02-08T21:31:23.442Z,83.10
2018-02-08T21:33:51.529Z,78.18
2018-02-08T21:36:19.501Z,78.53
2018-02-08T21:38:48.019Z,84.90
2018-02-08T21:41:15.953Z,92.45
2018-02-08T21:43:44.035Z,75.20
2018-02-08T21:46:11.709Z,89.10
2018-02-08T21:48:39.242Z,88.43
2018-02-08T21:51:06.802Z,100.05
2018-02-08T21:53:34.393Z,93.97
2018-02-08T21:56:01.910Z,85.20
2018-02-08T21:58:29.561Z,82.60
2018-02-08T22:00:58.175Z,101.25
2018-02-08T22:03:25.832Z,84.68
2018-02-08T22:05:53.364Z,87.00
2018-02-08T22:08:21.999Z,84.35
2018-02-08T22:10:49.958Z,83.12
2018-02-08T22:13:17.674Z,89.35
2018-02-08T22:15:45.734Z,94.22
2018-02-08T22:18:13.526Z,88.75
2018-02-08T22:20:41.837Z,95.15
2018-02-08T22:23:09.827Z,86.47
2018-02-08T22:25:37.519Z,92.45
2018-02-08T22:28:05.035Z,90.38
2018-02-08T22:30:32.879Z,92.50
2018-02-08T22:33:00.414Z,92.18
2018-02-08T22:35:28.119Z,92.32
2018-02-08T22:37:56.088Z,82.35
2018-02-08T22:40:23.870Z,87.45
2018-02-08T22:42:51.638Z,87.65
2018-02-08T22:45:19.510Z,87.18
2018-02-08T22:47:47.162Z,93.97
2018-02-08T22:50:14.762Z,79.72
2018-02-08T22:52:42.990Z,89.55
2018-02-08T22:55:10.530Z,90.35
2018-02-08T22:57:39.133Z,87.65
2018-02-08T23:00:06.823Z,89.87
2018-02-08T23:02:34.787Z,88.78
2018-02-08T23:05:02.313Z,95.00
2018-02-08T23:07:29.850Z,85.47
2018-02-08T23:09:58.138Z,82.53
2018-02-08T23:12:26.409Z,82.62
2018-02-08T23:14:54.949Z,89.53
2018-02-08T23:17:22.566Z,93.05
2018-02-08T23:19:52.092Z,87.20
2018-02-08T23:22:19.909Z,81.68
2018-02-08T23:24:47.547Z,94.00
2018-02-08T23:27:15.591Z,88.10
2018-02-08T23:29:43.340Z,83.45
2018-02-08T23:32:12.172Z,86.10
2018-02-08T23:34:40.015Z,99.62
2018-02-08T23:37:09.689Z,94.62
2018-02-08T23:39:38.311Z,85.80
2018-02-08T23:42:06.196Z,87.80
2018-02-08T23:44:34.572Z,89.25
2018-02-08T23:47:02.732Z,80.65
2018-02-08T23:49:31.344Z,80.25
2018-02-08T23:51:59.954Z,86.63
2018-02-08T23:54:27.911Z,82.95
2018-02-08T23:56:57.142Z,86.37
2018-02-08T23:59:25.004Z,87.47
